Latest Weather Observations for Alva Beach

IDQ60801

Issued at 4:32 pm EST Thursday 2 April 2015 (issued every 30 minutes, with the page automatically refreshed every 10 minutes)

About weather observations | Map of weather stations | Latest weather observations for QLD | Other Formats
Station Details ID: 033295 Name: ALVA BEACH Lat: -19.46 Lon: 147.48 Height: 7.5 m
Data from the previous 72 hours. | See also: Recent months at Alva Beach
Date/Time
EST
Temp
°C
App
Temp
°C
Dew
Point
Rel
Hum
%
Delta-T
°C
Wind Press
QNH
hPa
Press
MSL
hPa
Rain
since 9 am
mm
Dir
 
Spd
km/h
Gust
km/h
Spd
kts
Gust
kts
02/04:30pm 27.9 27.4 20.7 65 4.8 ENE 24 28 13 15 1010.0 1010.0 0.0
02/04:00pm 28.1 27.5 20.4 63 5.1 ENE 24 30 13 16 1009.8 1009.8 0.0
02/03:30pm 28.9 29.1 20.6 61 5.5 ENE 20 24 11 13 1009.7 1009.7 0.0
02/03:00pm 28.8 28.6 20.5 61 5.5 ENE 22 26 12 14 1009.9 1009.9 0.0
02/02:30pm 28.9 29.0 20.4 60 5.6 ENE 20 24 11 13 1010.1 1010.1 0.0
02/02:00pm 28.9 29.8 20.9 62 5.3 ENE 17 22 9 12 1010.6 1010.6 0.0
02/01:30pm 29.3 29.7 20.7 59 5.7 ENE 19 26 10 14 1010.8 1010.8 0.0
02/01:00pm 28.8 29.1 20.3 60 5.6 E 19 24 10 13 1011.3 1011.3 0.0
02/12:30pm 29.1 30.0 20.8 61 5.5 E 17 24 9 13 1011.9 1011.9 0.0
02/12:00pm 29.8 30.9 20.4 57 6.2 E 15 20 8 11 1012.6 1012.6 0.0
02/11:30am 29.8 31.5 20.1 56 6.4 ESE 11 17 6 9 1013.1 1013.1 0.0
02/11:00am 29.1 30.6 19.7 57 6.1 ESE 11 17 6 9 1013.6 1013.6 0.0
02/10:30am 28.1 29.0 19.3 58 5.7 ESE 13 20 7 11 1013.9 1013.9 0.0
02/10:00am 27.7 28.3 19.5 61 5.3 SE 15 22 8 12 1013.9 1013.9 0.0
02/09:30am 27.9 28.9 19.4 60 5.5 SE 13 20 7 11 1013.8 1013.8 0.0
02/09:00am 27.4 28.9 18.9 59 5.5 SE 9 19 5 10 1013.8 1013.8 0.2
02/08:30am 26.0 27.0 18.7 64 4.7 S 11 19 6 10 1013.9 1013.9 0.2
02/08:00am 24.8 26.2 18.7 69 3.9 S 9 17 5 9 1013.6 1013.6 0.2
02/07:30am 23.3 24.4 18.8 76 2.8 SSW 11 15 6 8 1013.4 1013.4 0.2
02/07:00am 21.8 23.6 18.8 83 1.9 SSW 7 13 4 7 1013.3 1013.3 0.2
02/06:30am 21.5 23.0 18.9 85 1.6 SSW 9 13 5 7 1012.9 1012.9 0.2
02/05:30am 21.5 22.9 18.7 84 1.8 SSW 9 13 5 7 1012.0 1012.0 0.2
02/05:00am 21.9 23.6 18.5 81 2.1 SSW 7 9 4 5 1011.7 1011.7 0.2
02/04:30am 22.7 24.5 18.7 78 2.5 SSW 7 9 4 5 1011.5 1011.5 0.2
02/04:00am 23.4 25.2 18.7 75 3.0 S 7 11 4 6 1011.3 1011.3 0.2
02/03:30am 23.7 25.2 19.0 75 3.0 S 9 15 5 8 1011.4 1011.4 0.2
02/03:00am 24.1 26.1 19.2 74 3.1 S 7 11 4 6 1011.5 1011.5 0.2
02/02:30am 24.9 26.8 19.0 69 3.8 S 7 15 4 8 1011.7 1011.7 0.2
02/02:00am 26.0 25.6 19.4 67 4.3 SE 20 28 11 15 1012.0 1012.0 0.2
02/01:30am 26.0 27.0 20.3 71 3.7 SE 15 26 8 14 1012.2 1012.2 0.2
02/01:00am 26.0 27.2 20.6 72 3.5 SE 15 22 8 12 1012.7 1012.7 0.2
02/12:30am 26.2 27.9 21.0 73 3.4 ESE 13 24 7 13 1013.0 1013.0 0.2
 
Date/Time
EST
Temp
°C
App
Temp
°C
Dew
Point
Rel
Hum
%
Delta-T
°C
Wind Press
QNH
hPa
Press
MSL
hPa
Rain
since 9 am
mm
Dir
 
Spd
km/h
Gust
km/h
Spd
kts
Gust
kts
01/11:30pm 26.4 26.8 19.8 67 4.3 ESE 17 28 9 15 1013.3 1013.3 0.2
01/11:00pm 26.7 26.6 19.6 65 4.6 ESE 19 32 10 17 1013.4 1013.4 0.2
01/10:30pm 27.0 27.1 20.3 66 4.4 SE 20 30 11 16 1013.6 1013.6 0.2
01/10:00pm 26.9 27.2 20.5 68 4.2 ESE 19 28 10 15 1013.6 1013.6 0.2
01/09:30pm 27.1 27.5 20.9 69 4.1 E 20 28 11 15 1013.7 1013.7 0.2
01/09:00pm 27.2 27.6 21.0 69 4.1 E 20 28 11 15 1013.6 1013.6 0.2
01/08:30pm 27.1 27.5 20.9 69 4.1 E 20 32 11 17 1013.2 1013.2 0.2
01/08:00pm 27.2 27.3 21.9 73 3.6 E 24 35 13 19 1012.7 1012.7 0.2
01/07:30pm 27.2 27.3 21.2 69 4.0 ESE 22 33 12 18 1012.5 1012.5 0.2
01/07:00pm 27.2 26.8 21.0 69 4.1 E 24 32 13 17 1012.2 1012.2 0.2
01/06:30pm 27.2 27.1 21.5 71 3.8 E 24 32 13 17 1012.0 1012.0 0.2
01/06:00pm 27.2 26.4 20.0 64 4.7 E 24 33 13 18 1011.9 1011.9 0.2
01/05:30pm 27.8 28.5 21.6 69 4.1 E 20 30 11 16 1011.9 1011.9 0.2
01/05:00pm 27.7 27.9 21.3 68 4.3 E 22 33 12 18 1011.5 1011.5 0.2
01/04:30pm 28.0 28.2 21.3 67 4.5 E 22 32 12 17 1011.4 1011.4 0.2
01/04:00pm 28.5 27.9 21.3 65 4.8 E 26 35 14 19 1011.1 1011.1 0.2
01/03:30pm 28.2 27.2 21.2 65 4.7 E 28 37 15 20 1011.1 1011.1 0.2
01/03:00pm 28.3 26.7 20.8 63 5.0 E 30 39 16 21 1011.2 1011.2 0.2
01/02:30pm 28.6 27.3 21.4 65 4.8 E 30 39 16 21 1011.6 1011.6 0.2
01/02:00pm 28.5 27.8 21.0 64 5.0 E 26 37 14 20 1012.0 1012.0 0.2
01/01:30pm 28.3 27.4 20.6 63 5.1 E 26 35 14 19 1012.3 1012.3 0.2
01/01:00pm 29.2 29.2 20.1 58 6.0 E 20 30 11 16 1012.8 1012.8 0.2
01/12:30pm 30.6 30.6 20.2 53 6.9 ESE 20 32 11 17 1013.5 1013.5 0.2
01/12:00pm 30.4 30.3 20.0 53 6.8 ESE 20 33 11 18 1013.9 1013.9 0.2
01/11:30am 30.7 30.8 20.0 52 7.1 ESE 19 30 10 16 1014.5 1014.5 0.2
01/11:00am 29.4 28.7 19.4 55 6.5 ESE 22 33 12 18 1015.0 1015.0 0.2
01/10:30am 29.2 28.0 19.2 54 6.5 SE 24 35 13 19 1015.4 1015.4 0.2
01/10:00am 28.4 28.1 19.1 57 6.0 SE 19 30 10 16 1015.4 1015.4 0.2
01/09:30am 28.3 28.4 18.4 55 6.3 SE 15 22 8 12 1015.7 1015.7 0.2
01/09:00am 28.0 28.6 18.7 57 6.0 SE 13 24 7 13 1015.7 1015.7 0.0
01/08:30am 27.2 27.9 18.8 60 5.4 SE 13 22 7 12 1015.5 1015.5 0.0
01/08:00am 26.1 27.4 19.2 65 4.4 SSE 11 19 6 10 1015.2 1015.2 0.0
01/07:30am 24.5 25.7 19.1 72 3.4 S 11 19 6 10 1015.1 1015.1 0.0
01/07:00am 23.5 24.8 19.2 77 2.7 S 11 19 6 10 1014.9 1014.9 0.0
01/06:30am 22.9 24.6 19.3 80 2.3 SSW 9 13 5 7 1014.7 1014.7 0.0
01/06:00am 23.4 25.5 19.3 78 2.6 S 7 15 4 8 1014.2 1014.2 0.0
01/05:30am 24.9 26.7 19.5 72 3.5 S 9 24 5 13 1013.9 1013.9 0.0
01/05:00am 25.4 25.7 20.4 74 3.3 SE 19 32 10 17 1013.6 1013.6 0.0
01/04:30am 25.5 25.7 20.5 74 3.3 ESE 20 37 11 20 1013.4 1013.4 0.0
01/04:00am 25.4 25.4 20.2 73 3.4 SE 20 33 11 18 1013.2 1013.2 0.0
01/03:30am 25.6 25.8 20.6 74 3.3 SE 20 30 11 16 1013.2 1013.2 0.0
01/03:00am 25.7 26.1 20.7 74 3.3 SE 19 39 10 21 1013.4 1013.4 0.0
01/02:30am 25.8 26.3 20.8 74 3.3 SE 19 32 10 17 1013.7 1013.7 0.0
01/02:00am 26.0 26.3 20.8 73 3.4 SE 20 30 11 16 1013.9 1013.9 0.0
01/01:30am 26.3 26.8 20.8 71 3.6 ESE 19 33 10 18 1014.1 1014.1 0.0
01/01:00am 26.4 27.7 20.9 72 3.6 ESE 15 22 8 12 1014.4 1014.4 0.0
01/12:30am 26.6 27.5 20.9 71 3.8 SE 17 30 9 16 1015.0 1015.0 0.0
01/12:00am 26.8 27.3 21.1 71 3.8 SE 20 28 11 15 1015.2 1015.2 0.0
 
Date/Time
EST
Temp
°C
App
Temp
°C
Dew
Point
Rel
Hum
%
Delta-T
°C
Wind Press
QNH
hPa
Press
MSL
hPa
Rain
since 9 am
mm
Dir
 
Spd
km/h
Gust
km/h
Spd
kts
Gust
kts
31/11:30pm 26.6 28.8 20.4 69 4.1 SE 9 19 5 10 1015.6 1015.6 0.0
31/11:00pm 26.5 28.3 19.6 66 4.5 SSE 9 15 5 8 1015.9 1015.9 0.0
31/10:30pm 27.1 27.9 19.9 64 4.7 SE 15 26 8 14 1016.2 1016.2 0.0
31/10:00pm 27.1 27.2 20.4 66 4.4 SE 20 32 11 17 1016.3 1016.3 0.0
31/09:30pm 27.2 26.4 20.8 68 4.2 SE 26 39 14 21 1016.2 1016.2 0.0
31/09:00pm 27.5 27.4 20.8 67 4.4 ESE 22 35 12 19 1015.9 1015.9 0.0
31/08:30pm 27.4 28.2 21.4 70 4.0 ESE 19 30 10 16 1015.6 1015.6 0.0
31/08:00pm 27.6 27.3 21.9 71 3.8 E 26 33 14 18 1015.1 1015.1 0.0
31/07:30pm 27.6 27.5 21.4 69 4.1 E 24 33 13 18 1014.9 1014.9 0.0
31/07:00pm 27.6 27.2 21.6 70 4.0 E 26 33 14 18 1014.5 1014.5 0.0
31/06:30pm 27.5 26.5 21.3 69 4.1 E 28 39 15 21 1014.0 1014.0 0.0
31/06:00pm 27.8 27.1 21.8 70 4.0 E 28 37 15 20 1013.7 1013.7 0.0
31/05:30pm 27.8 27.0 21.6 69 4.1 E 28 37 15 20 1013.4 1013.4 0.0
31/05:00pm 28.1 28.0 22.3 70 3.9 E 26 33 14 18 1013.4 1013.4 0.0
31/04:30pm 28.5 28.6 22.5 70 4.1 E 26 35 14 19 1013.2 1013.2 0.0
31/04:00pm 28.6 27.8 21.6 66 4.7 E 28 35 15 19 1013.1 1013.1 0.0
31/03:30pm 28.7 29.1 22.4 68 4.3 E 24 33 13 18 1012.9 1012.9 0.0
31/03:00pm 29.0 29.0 21.7 64 4.9 E 24 32 13 17 1013.1 1013.1 0.0
31/02:30pm 29.1 28.8 21.1 62 5.3 E 24 33 13 18 1013.6 1013.6 0.0
31/02:00pm 29.8 30.3 22.0 63 5.3 E 22 32 12 17 1013.9 1013.9 0.0
31/01:30pm 31.2 32.4 22.2 58 6.1 ESE 19 28 10 15 1014.4 1014.4 0.0
31/01:00pm 31.2 32.2 21.7 57 6.4 ESE 19 28 10 15 1014.7 1014.7 0.0
31/12:30pm 31.4 32.5 21.3 55 6.8 ESE 17 24 9 13 1015.5 1015.5 0.0
31/12:00pm 31.5 32.9 21.1 54 7.0 ESE 15 22 8 12 1016.1 1016.1 0.0
31/11:30am 31.1 32.8 21.6 57 6.4 ESE 15 24 8 13 1016.6 1016.6 0.0
31/11:00am 30.8 32.8 21.6 58 6.2 ESE 13 22 7 12 1017.0 1017.0 0.0
31/10:30am 29.0 30.4 21.0 62 5.3 SE 15 24 8 13 1017.2 1017.2 0.0
31/10:00am 28.9 30.6 21.7 65 4.8 SE 15 24 8 13 1017.4 1017.4 0.0
31/09:30am 28.8 30.8 21.6 65 4.8 SE 13 20 7 11 1017.4 1017.4 0.0
31/09:00am 29.6 31.0 21.8 63 5.2 ESE 17 30 9 16 1017.2 1017.2 3.2
31/08:30am 29.5 29.6 20.4 58 6.0 ESE 20 30 11 16 1017.0 1017.0 3.2
31/08:00am 28.8 28.5 20.3 60 5.6 ESE 22 33 12 18 1016.8 1016.8 3.2
31/07:30am 28.1 28.1 20.9 65 4.8 E 22 33 12 18 1016.4 1016.4 3.2
31/07:00am 26.1 28.5 21.5 76 3.1 SSE 11 22 6 12 1016.0 1016.0 3.2
31/06:30am 24.9 27.6 20.6 77 2.8 S 7 13 4 7 1015.6 1015.6 3.2
31/06:00am 26.8 26.9 20.4 68 4.2 ESE 20 28 11 15 1015.2 1015.2 3.2
31/05:30am 26.9 26.2 20.3 67 4.3 E 24 33 13 18 1014.9 1014.9 3.2
31/05:00am 26.8 26.4 20.2 67 4.3 E 22 30 12 16 1014.9 1014.9 3.2
31/04:30am 26.5 26.6 20.3 68 4.1 ESE 20 28 11 15 1014.9 1014.9 3.2
31/04:00am 26.7 26.3 20.1 67 4.3 E 22 30 12 16 1014.7 1014.7 3.2
31/03:30am 26.6 26.9 20.4 69 4.1 E 19 26 10 14 1014.8 1014.8 3.2
31/03:00am 26.9 26.4 20.7 69 4.1 E 24 32 13 17 1014.8 1014.8 3.2
31/02:30am 26.5 26.5 20.1 68 4.2 ESE 20 30 11 16 1015.1 1015.1 3.2
31/02:00am 26.8 26.5 20.4 68 4.2 E 22 32 12 17 1015.4 1015.4 3.2
31/01:30am 26.9 26.7 20.5 68 4.2 E 22 33 12 18 1015.6 1015.6 3.2
31/01:00am 27.0 26.4 20.6 68 4.2 E 24 35 13 19 1015.9 1015.9 3.2
31/12:30am 26.9 27.3 21.0 70 3.9 E 20 30 11 16 1016.4 1016.4 3.2
31/12:00am 27.0 27.5 21.1 70 3.9 E 20 28 11 15 1016.6 1016.6 3.2
 
Date/Time
EST
Temp
°C
App
Temp
°C
Dew
Point
Rel
Hum
%
Delta-T
°C
Wind Press
QNH
hPa
Press
MSL
hPa
Rain
since 9 am
mm
Dir
 
Spd
km/h
Gust
km/h
Spd
kts
Gust
kts
30/11:30pm 27.2 27.2 21.0 69 4.1 E 22 32 12 17 1017.0 1017.0 3.2
30/11:00pm 27.1 27.0 21.4 71 3.8 E 24 32 13 17 1017.1 1017.1 3.2
30/10:30pm 27.2 26.2 20.5 67 4.4 E 26 37 14 20 1017.2 1017.2 3.2
30/10:00pm 27.2 26.5 21.0 69 4.1 E 26 35 14 19 1017.4 1017.4 2.0
30/09:30pm 27.3 26.0 20.6 67 4.4 E 28 41 15 22 1017.5 1017.5 1.0
30/09:00pm 27.5 26.2 20.6 66 4.5 E 28 39 15 21 1017.4 1017.4 0.0
30/08:30pm 27.7 27.1 21.3 68 4.3 E 26 39 14 21 1017.2 1017.2 0.0
30/08:00pm 28.0 27.0 21.3 67 4.5 E 28 37 15 20 1016.9 1016.9 0.0
30/07:30pm 28.0 26.9 21.8 69 4.2 E 30 41 16 22 1016.5 1016.5 0.0
30/07:00pm 28.1 26.1 21.1 65 4.6 E 33 43 18 23 1016.2 1016.2 0.0
30/06:30pm 28.1 27.2 21.4 67 4.5 E 28 39 15 21 1015.9 1015.9 0.0
30/06:00pm 28.1 27.5 21.9 69 4.2 E 28 37 15 20 1015.8 1015.8 0.0
30/05:30pm 28.4 28.0 21.7 67 4.5 E 26 39 14 21 1015.5 1015.5 0.0
30/05:00pm 28.8 29.1 21.6 65 4.8 E 22 30 12 16 1015.5 1015.5 0.0

Other Formats:

Comma delimited format used in spreadsheet applications
http://www.bom.gov.au/fwo/IDQ60801/IDQ60801.95296.axf

JavaScript Object Notation format (JSON) in row-major order
http://www.bom.gov.au/fwo/IDQ60801/IDQ60801.95296.json